sensor_id;sensor_type;location;lat;lon;timestamp;temperature;humidity
35463;DHT22;21578;47.892;9.970;2023-02-01T00:03:06;1.70;96.60
35463;DHT22;21578;47.892;9.970;2023-02-01T00:07:54;1.70;96.60
35463;DHT22;21578;47.892;9.970;2023-02-01T00:12:42;1.80;96.60
35463;DHT22;21578;47.892;9.970;2023-02-01T00:17:29;1.80;96.60
35463;DHT22;21578;47.892;9.970;2023-02-01T00:22:16;1.80;96.60
35463;DHT22;21578;47.892;9.970;2023-02-01T00:27:03;1.80;96.60
35463;DHT22;21578;47.892;9.970;2023-02-01T00:31:52;1.70;96.60
35463;DHT22;21578;47.892;9.970;2023-02-01T00:36:39;1.80;96.60
35463;DHT22;21578;47.892;9.970;2023-02-01T00:41:26;1.80;96.60
35463;DHT22;21578;47.892;9.970;2023-02-01T00:46:15;1.80;96.60
35463;DHT22;21578;47.892;9.970;2023-02-01T00:51:05;1.80;96.60
35463;DHT22;21578;47.892;9.970;2023-02-01T00:55:52;1.80;96.60
35463;DHT22;21578;47.892;9.970;2023-02-01T01:00:40;1.80;96.60
35463;DHT22;21578;47.892;9.970;2023-02-01T01:05:27;1.80;96.60
35463;DHT22;21578;47.892;9.970;2023-02-01T01:10:16;1.80;96.60
35463;DHT22;21578;47.892;9.970;2023-02-01T01:15:04;1.70;96.60
35463;DHT22;21578;47.892;9.970;2023-02-01T01:19:51;1.80;96.60
35463;DHT22;21578;47.892;9.970;2023-02-01T01:24:38;1.80;96.60
35463;DHT22;21578;47.892;9.970;2023-02-01T01:29:27;1.80;96.60
35463;DHT22;21578;47.892;9.970;2023-02-01T01:34:14;1.80;96.60
35463;DHT22;21578;47.892;9.970;2023-02-01T01:39:01;1.80;96.60
35463;DHT22;21578;47.892;9.970;2023-02-01T01:43:54;1.80;96.60
35463;DHT22;21578;47.892;9.970;2023-02-01T01:48:43;1.70;96.60
35463;DHT22;21578;47.892;9.970;2023-02-01T01:53:33;1.70;96.60
35463;DHT22;21578;47.892;9.970;2023-02-01T01:58:25;1.70;96.60
35463;DHT22;21578;47.892;9.970;2023-02-01T02:03:16;1.70;96.60
35463;DHT22;21578;47.892;9.970;2023-02-01T02:08:06;1.70;96.60
35463;DHT22;21578;47.892;9.970;2023-02-01T02:12:53;1.80;96.60
35463;DHT22;21578;47.892;9.970;2023-02-01T02:17:46;1.70;96.60
35463;DHT22;21578;47.892;9.970;2023-02-01T02:22:48;1.80;96.60
35463;DHT22;21578;47.892;9.970;2023-02-01T02:27:48;1.80;96.60
35463;DHT22;21578;47.892;9.970;2023-02-01T02:38:13;1.80;96.60
35463;DHT22;21578;47.892;9.970;2023-02-01T02:43:08;1.80;96.60
35463;DHT22;21578;47.892;9.970;2023-02-01T02:48:17;1.70;96.60
35463;DHT22;21578;47.892;9.970;2023-02-01T02:53:11;1.70;96.60
35463;DHT22;21578;47.892;9.970;2023-02-01T02:58:17;1.80;96.60
35463;DHT22;21578;47.892;9.970;2023-02-01T03:03:22;1.70;96.60
35463;DHT22;21578;47.892;9.970;2023-02-01T03:08:29;1.70;96.60
35463;DHT22;21578;47.892;9.970;2023-02-01T03:13:26;1.80;96.60
35463;DHT22;21578;47.892;9.970;2023-02-01T03:18:20;1.70;96.60
35463;DHT22;21578;47.892;9.970;2023-02-01T03:23:14;1.70;96.60
35463;DHT22;21578;47.892;9.970;2023-02-01T03:28:07;1.70;96.60
35463;DHT22;21578;47.892;9.970;2023-02-01T03:32:57;1.70;96.60
35463;DHT22;21578;47.892;9.970;2023-02-01T03:37:46;1.70;96.60
35463;DHT22;21578;47.892;9.970;2023-02-01T03:42:35;1.70;96.60
35463;DHT22;21578;47.892;9.970;2023-02-01T03:47:27;1.70;96.60
35463;DHT22;21578;47.892;9.970;2023-02-01T03:52:20;1.80;96.60
35463;DHT22;21578;47.892;9.970;2023-02-01T03:57:13;1.70;96.60
35463;DHT22;21578;47.892;9.970;2023-02-01T04:02:00;1.70;96.60
35463;DHT22;21578;47.892;9.970;2023-02-01T04:06:49;1.70;96.60
35463;DHT22;21578;47.892;9.970;2023-02-01T04:11:37;1.70;96.60
35463;DHT22;21578;47.892;9.970;2023-02-01T04:16:24;1.70;96.60
35463;DHT22;21578;47.892;9.970;2023-02-01T04:21:11;1.70;96.60
35463;DHT22;21578;47.892;9.970;2023-02-01T04:26:00;1.70;96.60
35463;DHT22;21578;47.892;9.970;2023-02-01T04:30:48;1.70;96.60
35463;DHT22;21578;47.892;9.970;2023-02-01T04:35:35;1.70;96.60
35463;DHT22;21578;47.892;9.970;2023-02-01T04:40:22;1.80;96.60
35463;DHT22;21578;47.892;9.970;2023-02-01T04:45:11;1.70;96.60
35463;DHT22;21578;47.892;9.970;2023-02-01T04:49:58;1.70;96.60
35463;DHT22;21578;47.892;9.970;2023-02-01T04:54:45;1.70;96.60
35463;DHT22;21578;47.892;9.970;2023-02-01T04:59:32;1.70;96.60
35463;DHT22;21578;47.892;9.970;2023-02-01T05:04:21;1.60;96.60
35463;DHT22;21578;47.892;9.970;2023-02-01T05:09:08;1.70;96.60
35463;DHT22;21578;47.892;9.970;2023-02-01T05:13:55;1.60;96.60
35463;DHT22;21578;47.892;9.970;2023-02-01T05:18:42;1.60;96.60
35463;DHT22;21578;47.892;9.970;2023-02-01T05:23:31;1.70;96.60
35463;DHT22;21578;47.892;9.970;2023-02-01T05:28:18;1.60;96.60
35463;DHT22;21578;47.892;9.970;2023-02-01T05:33:05;1.70;96.60
35463;DHT22;21578;47.892;9.970;2023-02-01T05:37:52;1.70;96.60
35463;DHT22;21578;47.892;9.970;2023-02-01T05:42:40;1.60;96.60
35463;DHT22;21578;47.892;9.970;2023-02-01T05:47:27;1.70;96.60
35463;DHT22;21578;47.892;9.970;2023-02-01T05:52:15;1.60;96.60
35463;DHT22;21578;47.892;9.970;2023-02-01T05:57:22;1.60;96.60
35463;DHT22;21578;47.892;9.970;2023-02-01T06:02:10;1.60;96.60
35463;DHT22;21578;47.892;9.970;2023-02-01T06:06:57;1.50;96.60
35463;DHT22;21578;47.892;9.970;2023-02-01T06:11:44;1.50;96.60
35463;DHT22;21578;47.892;9.970;2023-02-01T06:16:32;1.50;96.60
35463;DHT22;21578;47.892;9.970;2023-02-01T06:21:20;1.60;96.60
35463;DHT22;21578;47.892;9.970;2023-02-01T06:26:10;1.50;96.60
35463;DHT22;21578;47.892;9.970;2023-02-01T06:30:57;1.40;96.60
35463;DHT22;21578;47.892;9.970;2023-02-01T06:35:44;1.50;96.60
35463;DHT22;21578;47.892;9.970;2023-02-01T06:40:34;1.40;96.60
35463;DHT22;21578;47.892;9.970;2023-02-01T06:45:21;1.40;96.60
35463;DHT22;21578;47.892;9.970;2023-02-01T06:50:09;1.40;96.60
35463;DHT22;21578;47.892;9.970;2023-02-01T06:54:56;1.40;96.60
35463;DHT22;21578;47.892;9.970;2023-02-01T06:59:45;1.40;96.60
35463;DHT22;21578;47.892;9.970;2023-02-01T07:04:32;1.50;96.60
35463;DHT22;21578;47.892;9.970;2023-02-01T07:09:19;1.40;96.60
35463;DHT22;21578;47.892;9.970;2023-02-01T07:14:07;1.30;96.60
35463;DHT22;21578;47.892;9.970;2023-02-01T07:18:55;1.40;96.60
35463;DHT22;21578;47.892;9.970;2023-02-01T07:23:42;1.40;96.60
35463;DHT22;21578;47.892;9.970;2023-02-01T07:28:31;1.40;96.60
35463;DHT22;21578;47.892;9.970;2023-02-01T07:33:19;1.40;96.60
35463;DHT22;21578;47.892;9.970;2023-02-01T07:38:08;1.50;96.60
35463;DHT22;21578;47.892;9.970;2023-02-01T07:42:55;1.50;96.60
35463;DHT22;21578;47.892;9.970;2023-02-01T07:47:42;1.50;96.60
35463;DHT22;21578;47.892;9.970;2023-02-01T07:52:29;1.50;96.60
35463;DHT22;21578;47.892;9.970;2023-02-01T07:57:18;1.50;96.60
35463;DHT22;21578;47.892;9.970;2023-02-01T08:02:05;1.60;96.60
35463;DHT22;21578;47.892;9.970;2023-02-01T08:06:52;1.70;96.60
35463;DHT22;21578;47.892;9.970;2023-02-01T08:11:39;1.60;96.60
35463;DHT22;21578;47.892;9.970;2023-02-01T08:16:28;1.60;96.60
35463;DHT22;21578;47.892;9.970;2023-02-01T08:21:16;1.60;96.60
35463;DHT22;21578;47.892;9.970;2023-02-01T08:26:06;1.70;96.60
35463;DHT22;21578;47.892;9.970;2023-02-01T08:30:53;1.70;96.60
35463;DHT22;21578;47.892;9.970;2023-02-01T08:35:42;1.70;96.60
35463;DHT22;21578;47.892;9.970;2023-02-01T08:40:29;1.80;96.60
35463;DHT22;21578;47.892;9.970;2023-02-01T08:45:16;1.80;96.60
35463;DHT22;21578;47.892;9.970;2023-02-01T08:50:05;1.80;96.60
35463;DHT22;21578;47.892;9.970;2023-02-01T08:54:53;1.80;96.60
35463;DHT22;21578;47.892;9.970;2023-02-01T08:59:40;1.80;96.60
35463;DHT22;21578;47.892;9.970;2023-02-01T09:04:29;1.80;96.60
35463;DHT22;21578;47.892;9.970;2023-02-01T09:09:16;1.80;96.60
35463;DHT22;21578;47.892;9.970;2023-02-01T09:14:05;1.90;96.60
35463;DHT22;21578;47.892;9.970;2023-02-01T09:18:52;1.90;96.60
35463;DHT22;21578;47.892;9.970;2023-02-01T09:23:39;1.90;96.60
35463;DHT22;21578;47.892;9.970;2023-02-01T09:28:26;1.90;96.60
35463;DHT22;21578;47.892;9.970;2023-02-01T09:33:15;1.90;96.60
35463;DHT22;21578;47.892;9.970;2023-02-01T09:38:03;2.00;96.60
35463;DHT22;21578;47.892;9.970;2023-02-01T09:43:02;1.90;96.60
35463;DHT22;21578;47.892;9.970;2023-02-01T09:47:57;1.90;96.60
35463;DHT22;21578;47.892;9.970;2023-02-01T09:52:50;1.90;96.60
35463;DHT22;21578;47.892;9.970;2023-02-01T09:57:45;1.90;96.60
35463;DHT22;21578;47.892;9.970;2023-02-01T10:02:37;1.90;96.60
35463;DHT22;21578;47.892;9.970;2023-02-01T10:07:32;2.00;96.60
35463;DHT22;21578;47.892;9.970;2023-02-01T10:17:53;2.10;96.60
35463;DHT22;21578;47.892;9.970;2023-02-01T10:22:47;2.10;96.60
35463;DHT22;21578;47.892;9.970;2023-02-01T10:27:38;2.20;96.60
35463;DHT22;21578;47.892;9.970;2023-02-01T10:32:30;2.20;96.60
35463;DHT22;21578;47.892;9.970;2023-02-01T10:37:30;2.30;96.60
35463;DHT22;21578;47.892;9.970;2023-02-01T10:42:19;2.30;96.60
35463;DHT22;21578;47.892;9.970;2023-02-01T10:47:08;2.20;96.60
35463;DHT22;21578;47.892;9.970;2023-02-01T10:52:01;2.20;96.60
35463;DHT22;21578;47.892;9.970;2023-02-01T10:56:50;2.30;96.60
35463;DHT22;21578;47.892;9.970;2023-02-01T11:01:41;2.40;96.60
35463;DHT22;21578;47.892;9.970;2023-02-01T11:06:32;2.50;96.60
35463;DHT22;21578;47.892;9.970;2023-02-01T11:11:21;2.50;96.60
35463;DHT22;21578;47.892;9.970;2023-02-01T11:16:12;2.50;96.60
35463;DHT22;21578;47.892;9.970;2023-02-01T11:21:00;2.60;96.60
35463;DHT22;21578;47.892;9.970;2023-02-01T11:25:49;2.60;96.60
35463;DHT22;21578;47.892;9.970;2023-02-01T11:30:38;2.60;96.60
35463;DHT22;21578;47.892;9.970;2023-02-01T11:35:28;2.60;96.60
35463;DHT22;21578;47.892;9.970;2023-02-01T11:40:26;2.60;96.60
35463;DHT22;21578;47.892;9.970;2023-02-01T11:45:19;2.60;96.60
35463;DHT22;21578;47.892;9.970;2023-02-01T11:50:14;2.70;96.60
35463;DHT22;21578;47.892;9.970;2023-02-01T11:55:21;2.70;96.60
35463;DHT22;21578;47.892;9.970;2023-02-01T12:00:36;2.70;96.60
35463;DHT22;21578;47.892;9.970;2023-02-01T12:05:41;2.60;96.60
35463;DHT22;21578;47.892;9.970;2023-02-01T12:10:42;2.70;96.60
35463;DHT22;21578;47.892;9.970;2023-02-01T12:15:46;2.70;96.60
35463;DHT22;21578;47.892;9.970;2023-02-01T12:26:03;2.70;96.60
35463;DHT22;21578;47.892;9.970;2023-02-01T12:31:22;2.70;96.60
35463;DHT22;21578;47.892;9.970;2023-02-01T12:36:15;2.70;96.60
35463;DHT22;21578;47.892;9.970;2023-02-01T12:41:15;2.70;96.60
35463;DHT22;21578;47.892;9.970;2023-02-01T12:46:10;2.80;96.60
35463;DHT22;21578;47.892;9.970;2023-02-01T12:51:01;2.90;96.60
35463;DHT22;21578;47.892;9.970;2023-02-01T12:55:50;2.90;96.60
35463;DHT22;21578;47.892;9.970;2023-02-01T13:00:44;2.90;96.60
35463;DHT22;21578;47.892;9.970;2023-02-01T13:05:38;2.90;96.60
35463;DHT22;21578;47.892;9.970;2023-02-01T13:10:34;3.00;96.60
35463;DHT22;21578;47.892;9.970;2023-02-01T13:15:24;3.00;96.60
35463;DHT22;21578;47.892;9.970;2023-02-01T13:20:19;3.00;96.60
35463;DHT22;21578;47.892;9.970;2023-02-01T13:25:12;3.00;96.60
35463;DHT22;21578;47.892;9.970;2023-02-01T13:30:02;2.90;96.60
35463;DHT22;21578;47.892;9.970;2023-02-01T13:35:16;2.90;96.60
35463;DHT22;21578;47.892;9.970;2023-02-01T13:40:19;2.90;96.60
35463;DHT22;21578;47.892;9.970;2023-02-01T13:45:15;2.90;96.60
35463;DHT22;21578;47.892;9.970;2023-02-01T13:50:13;3.00;96.60
35463;DHT22;21578;47.892;9.970;2023-02-01T13:55:32;3.00;96.60
35463;DHT22;21578;47.892;9.970;2023-02-01T14:00:25;3.00;96.60
35463;DHT22;21578;47.892;9.970;2023-02-01T14:10:48;3.00;96.60
35463;DHT22;21578;47.892;9.970;2023-02-01T14:15:36;2.90;96.60
35463;DHT22;21578;47.892;9.970;2023-02-01T14:20:45;2.90;96.60
35463;DHT22;21578;47.892;9.970;2023-02-01T14:25:37;2.90;96.60
35463;DHT22;21578;47.892;9.970;2023-02-01T14:30:27;2.90;96.60
35463;DHT22;21578;47.892;9.970;2023-02-01T14:35:19;2.90;96.60
35463;DHT22;21578;47.892;9.970;2023-02-01T14:40:19;2.90;96.60
35463;DHT22;21578;47.892;9.970;2023-02-01T14:50:34;2.80;96.60
35463;DHT22;21578;47.892;9.970;2023-02-01T14:55:27;2.80;96.60
35463;DHT22;21578;47.892;9.970;2023-02-01T15:00:22;2.80;96.60
35463;DHT22;21578;47.892;9.970;2023-02-01T15:05:35;2.80;96.60
35463;DHT22;21578;47.892;9.970;2023-02-01T15:10:23;2.80;96.60
35463;DHT22;21578;47.892;9.970;2023-02-01T15:15:12;2.80;96.60
35463;DHT22;21578;47.892;9.970;2023-02-01T15:20:02;2.80;96.60
35463;DHT22;21578;47.892;9.970;2023-02-01T15:24:54;2.80;96.60
35463;DHT22;21578;47.892;9.970;2023-02-01T15:29:41;2.80;96.60
35463;DHT22;21578;47.892;9.970;2023-02-01T15:34:44;2.80;96.60
35463;DHT22;21578;47.892;9.970;2023-02-01T15:39:32;2.70;96.60
35463;DHT22;21578;47.892;9.970;2023-02-01T15:44:28;2.70;96.60
35463;DHT22;21578;47.892;9.970;2023-02-01T15:49:25;2.70;96.60
35463;DHT22;21578;47.892;9.970;2023-02-01T15:54:17;2.70;96.60
35463;DHT22;21578;47.892;9.970;2023-02-01T15:59:13;2.70;96.60
35463;DHT22;21578;47.892;9.970;2023-02-01T16:04:09;2.80;96.60
35463;DHT22;21578;47.892;9.970;2023-02-01T16:09:02;2.80;96.60
35463;DHT22;21578;47.892;9.970;2023-02-01T16:13:49;2.80;96.60
35463;DHT22;21578;47.892;9.970;2023-02-01T16:18:36;2.70;96.60
35463;DHT22;21578;47.892;9.970;2023-02-01T16:23:25;2.80;96.60
35463;DHT22;21578;47.892;9.970;2023-02-01T16:28:13;2.70;96.60
35463;DHT22;21578;47.892;9.970;2023-02-01T16:33:01;2.80;96.60
35463;DHT22;21578;47.892;9.970;2023-02-01T16:37:51;2.70;96.60
35463;DHT22;21578;47.892;9.970;2023-02-01T16:42:39;2.70;96.60
35463;DHT22;21578;47.892;9.970;2023-02-01T16:47:26;2.70;96.60
35463;DHT22;21578;47.892;9.970;2023-02-01T16:52:15;2.70;96.60
35463;DHT22;21578;47.892;9.970;2023-02-01T16:57:04;2.70;96.60
35463;DHT22;21578;47.892;9.970;2023-02-01T17:01:53;2.70;96.60
35463;DHT22;21578;47.892;9.970;2023-02-01T17:06:40;2.70;96.60
35463;DHT22;21578;47.892;9.970;2023-02-01T17:11:27;2.70;96.60
35463;DHT22;21578;47.892;9.970;2023-02-01T17:16:25;2.70;96.60
35463;DHT22;21578;47.892;9.970;2023-02-01T17:21:13;2.60;96.60
35463;DHT22;21578;47.892;9.970;2023-02-01T17:26:00;2.60;96.60
35463;DHT22;21578;47.892;9.970;2023-02-01T17:30:48;2.70;96.60
35463;DHT22;21578;47.892;9.970;2023-02-01T17:35:35;2.60;96.60
35463;DHT22;21578;47.892;9.970;2023-02-01T17:40:24;2.60;96.60
35463;DHT22;21578;47.892;9.970;2023-02-01T17:45:31;2.60;96.60
35463;DHT22;21578;47.892;9.970;2023-02-01T17:50:19;2.60;96.60
35463;DHT22;21578;47.892;9.970;2023-02-01T17:55:15;2.60;96.60
35463;DHT22;21578;47.892;9.970;2023-02-01T18:00:06;2.60;96.60
35463;DHT22;21578;47.892;9.970;2023-02-01T18:04:53;2.60;96.60
35463;DHT22;21578;47.892;9.970;2023-02-01T18:09:40;2.60;96.60
35463;DHT22;21578;47.892;9.970;2023-02-01T18:14:27;2.60;96.60
35463;DHT22;21578;47.892;9.970;2023-02-01T18:19:15;2.60;96.60
35463;DHT22;21578;47.892;9.970;2023-02-01T18:24:02;2.60;96.60
35463;DHT22;21578;47.892;9.970;2023-02-01T18:28:50;2.70;96.60
35463;DHT22;21578;47.892;9.970;2023-02-01T18:33:36;2.60;96.60
35463;DHT22;21578;47.892;9.970;2023-02-01T18:38:25;2.60;96.60
35463;DHT22;21578;47.892;9.970;2023-02-01T18:43:12;2.60;96.60
35463;DHT22;21578;47.892;9.970;2023-02-01T18:48:00;2.60;96.60
35463;DHT22;21578;47.892;9.970;2023-02-01T18:52:47;2.60;96.60
35463;DHT22;21578;47.892;9.970;2023-02-01T18:57:35;2.60;96.60
35463;DHT22;21578;47.892;9.970;2023-02-01T19:02:22;2.60;96.60
35463;DHT22;21578;47.892;9.970;2023-02-01T19:07:09;2.60;96.60
35463;DHT22;21578;47.892;9.970;2023-02-01T19:11:56;2.50;96.60
35463;DHT22;21578;47.892;9.970;2023-02-01T19:16:44;2.50;96.60
35463;DHT22;21578;47.892;9.970;2023-02-01T19:21:31;2.60;96.60
35463;DHT22;21578;47.892;9.970;2023-02-01T19:26:18;2.50;96.60
35463;DHT22;21578;47.892;9.970;2023-02-01T19:31:07;2.60;96.60
35463;DHT22;21578;47.892;9.970;2023-02-01T19:35:57;2.60;96.60
35463;DHT22;21578;47.892;9.970;2023-02-01T19:40:47;2.50;96.60
35463;DHT22;21578;47.892;9.970;2023-02-01T19:45:34;2.60;96.60
35463;DHT22;21578;47.892;9.970;2023-02-01T19:50:21;2.60;96.60
35463;DHT22;21578;47.892;9.970;2023-02-01T19:55:10;2.50;96.60
35463;DHT22;21578;47.892;9.970;2023-02-01T19:59:57;2.50;96.60
35463;DHT22;21578;47.892;9.970;2023-02-01T20:04:43;2.60;96.60
35463;DHT22;21578;47.892;9.970;2023-02-01T20:09:30;2.50;96.60
35463;DHT22;21578;47.892;9.970;2023-02-01T20:14:20;2.50;96.60
35463;DHT22;21578;47.892;9.970;2023-02-01T20:19:08;2.50;96.60
35463;DHT22;21578;47.892;9.970;2023-02-01T20:23:56;2.60;96.60
35463;DHT22;21578;47.892;9.970;2023-02-01T20:28:42;2.60;96.60
35463;DHT22;21578;47.892;9.970;2023-02-01T20:33:31;2.50;96.60
35463;DHT22;21578;47.892;9.970;2023-02-01T20:38:19;2.60;96.60
35463;DHT22;21578;47.892;9.970;2023-02-01T20:43:05;2.60;96.60
35463;DHT22;21578;47.892;9.970;2023-02-01T20:47:53;2.60;96.60
35463;DHT22;21578;47.892;9.970;2023-02-01T20:52:41;2.50;96.60
35463;DHT22;21578;47.892;9.970;2023-02-01T20:57:28;2.50;96.60
35463;DHT22;21578;47.892;9.970;2023-02-01T21:02:15;2.50;96.60
35463;DHT22;21578;47.892;9.970;2023-02-01T21:07:02;2.60;96.60
35463;DHT22;21578;47.892;9.970;2023-02-01T21:11:51;2.50;96.60
35463;DHT22;21578;47.892;9.970;2023-02-01T21:16:38;2.50;96.60
35463;DHT22;21578;47.892;9.970;2023-02-01T21:21:25;2.50;96.60
35463;DHT22;21578;47.892;9.970;2023-02-01T21:26:12;2.50;96.60
35463;DHT22;21578;47.892;9.970;2023-02-01T21:31:01;2.50;96.60
35463;DHT22;21578;47.892;9.970;2023-02-01T21:35:49;2.50;96.60
35463;DHT22;21578;47.892;9.970;2023-02-01T21:40:36;2.50;96.60
35463;DHT22;21578;47.892;9.970;2023-02-01T21:45:23;2.50;96.60
35463;DHT22;21578;47.892;9.970;2023-02-01T21:50:15;2.50;96.60
35463;DHT22;21578;47.892;9.970;2023-02-01T21:55:02;2.40;96.60
35463;DHT22;21578;47.892;9.970;2023-02-01T21:59:49;2.50;96.60
35463;DHT22;21578;47.892;9.970;2023-02-01T22:04:36;2.50;96.60
35463;DHT22;21578;47.892;9.970;2023-02-01T22:09:25;2.50;96.60
35463;DHT22;21578;47.892;9.970;2023-02-01T22:14:12;2.40;96.60
35463;DHT22;21578;47.892;9.970;2023-02-01T22:18:59;2.50;96.60
35463;DHT22;21578;47.892;9.970;2023-02-01T22:23:50;2.50;96.60
35463;DHT22;21578;47.892;9.970;2023-02-01T22:28:40;2.50;96.60
35463;DHT22;21578;47.892;9.970;2023-02-01T22:33:27;2.40;96.60
35463;DHT22;21578;47.892;9.970;2023-02-01T22:38:14;2.50;96.60
35463;DHT22;21578;47.892;9.970;2023-02-01T22:43:01;2.50;96.60
35463;DHT22;21578;47.892;9.970;2023-02-01T22:47:49;2.50;96.60
35463;DHT22;21578;47.892;9.970;2023-02-01T22:52:37;2.40;96.60
35463;DHT22;21578;47.892;9.970;2023-02-01T22:57:24;2.50;96.60
35463;DHT22;21578;47.892;9.970;2023-02-01T23:02:11;2.50;96.60
35463;DHT22;21578;47.892;9.970;2023-02-01T23:06:59;2.50;96.60
35463;DHT22;21578;47.892;9.970;2023-02-01T23:11:46;2.40;96.60
35463;DHT22;21578;47.892;9.970;2023-02-01T23:16:34;2.40;96.60
35463;DHT22;21578;47.892;9.970;2023-02-01T23:21:22;2.40;96.60
35463;DHT22;21578;47.892;9.970;2023-02-01T23:26:10;2.40;96.60
35463;DHT22;21578;47.892;9.970;2023-02-01T23:30:57;2.40;96.60
35463;DHT22;21578;47.892;9.970;2023-02-01T23:35:53;2.40;96.60
35463;DHT22;21578;47.892;9.970;2023-02-01T23:40:40;2.40;96.60
35463;DHT22;21578;47.892;9.970;2023-02-01T23:45:28;2.40;96.60
35463;DHT22;21578;47.892;9.970;2023-02-01T23:50:15;2.40;96.60
35463;DHT22;21578;47.892;9.970;2023-02-01T23:55:02;2.40;96.60
35463;DHT22;21578;47.892;9.970;2023-02-01T23:59:49;2.30;96.60
